Acton, Texas
Current Conditions -  °F | °C
As of 1:15 PM on Friday 28 Nov 2014 (Local Time) from KGDJ Reporting Station
Clear Clear  
Wind Chill: 69°   Ceiling: Unl
Heat Index: 69°   Visibility: 10mi
Dew Point: 49°   Wind: 17mph
Humidity: 49%   Direction: 170°S
Pressure: 30.1"   Gusts: 22mph
Location:  32.4693°N, 97.7085°W
Report Text: KGDJ 281915Z AUTO 17015G19KT 10SM CLR 21/10 A3010 RMK AO2 T02060095
Loading
Personal Weather Stations






























Interactive Weather Map New forecast layout! Learn more

10-Day Weather Forecast

Advertisements
Track Severe Weather on mobile